• Join FlightAware (Why Join?)
  • Login
  • US Flag 
04:24AM EDT


 

Airport Tracker/Info


-or-


 

Live Flight TrackerFlight Track Log ✈ EJA687 ✈ 29-Apr-2012 ✈ KAPF - KROC

Flight Track Log - Related Links

Times and Time Zones

All times are in EDT time to prevent confusion due to time zone crossing. See the EJA687 flight status page for this flight to view local times or setup timezone preferences in your user account.

Time Position Orientation Groundspeed Altitude Reporting Facility
EDT Latitude Longitude Course Direction KTS MPH feet Rate Location/Type
10:22AM 26.2781 -81.7462 104° East  Level FlightAware Approximate
10:23AM 26.2658 -81.6892 356° North 271 312 5,700  Level Miami Center
10:24AM 26.3428 -81.6944 356° North 300 345 8,600 2,700 Climbing Miami Center
10:25AM 26.4200 -81.7000 353° North 288 331 11,200 2,040 Climbing Miami Center
10:26AM 26.4969 -81.7100 357° North 288 331 12,700 1,620 Climbing Miami Center
10:27AM 26.5864 -81.7161 355° North 300 345 14,500 1,740 Climbing Miami Center
10:28AM 26.6758 -81.7244 358° North 312 359 16,200 1,680 Climbing Miami Center
10:29AM 26.7697 -81.7283 355° North 318 366 17,900 1,620 Climbing Miami Center
10:30AM 26.8633 -81.7369 357° North 331 381 19,500 1,500 Climbing Miami Center
10:31AM 26.9611 -81.7433 352° North 336 387 20,900 1,500 Climbing Miami Center
10:32AM 27.0714 -81.7597 342° North 347 399 22,500 1,020 Climbing Miami Center
10:33AM 27.1600 -81.7914 347° North 359 413 23,000 360 Climbing Miami Center
10:34AM 27.2572 -81.8167 16° North 364 419 23,300 480 Climbing Miami Center
10:35AM 27.3628 -81.7836 18° North 369 425 24,000 840 Climbing Miami Center
10:36AM 27.4769 -81.7417 19° North 376 433 25,000 540 Climbing Miami Center
10:37AM 27.5825 -81.7017 14° North 389 448 25,100 480 Climbing Miami Center
10:38AM 27.6836 -81.6733 North 403 464 26,000 480 Climbing Miami Center
10:39AM 27.7967 -81.6661 North 398 458 26,100 600 Climbing Miami Center
10:40AM 27.9011 -81.6589 North 391 450 27,300 900 Climbing Miami Center
10:41AM 28.0142 -81.6519 North 391 450 28,000 300 Climbing Miami Center
10:42AM 28.1417 -81.6433 North 397 457 28,000 300 Level Miami Center
10:43AM 28.2650 -81.6367 North 423 487 28,700 480 Climbing Miami Center
10:44AM 28.3861 -81.6300 North 428 493 29,000 720 Climbing Miami Center
10:45AM 28.5053 -81.6233 North 436 502 30,200 1,380 Climbing Miami Center
10:46AM 28.6194 -81.6178 North 426 490 31,800 1,440 Climbing Jacksonville Center
10:47AM 28.7319 -81.6117 North 432 497 33,100 1,140 Climbing Jacksonville Center
10:48AM 28.8467 -81.6056 North 420 483 34,100 1,020 Climbing Jacksonville Center
10:49AM 28.9636 -81.5992 North 420 483 35,200 1,140 Climbing Jacksonville Center
10:50AM 29.0803 -81.5906 North 420 483 36,400 900 Climbing Jacksonville Center
10:51AM 29.1972 -81.5819 North 420 483 37,000 300 Climbing Jacksonville Center
10:52AM 29.3161 -81.5756 North 420 483 37,000 420 Level Jacksonville Center
10:53AM 29.4331 -81.5692 North 426 490 37,900 960 Climbing Jacksonville Center
10:54AM 29.5519 -81.5606 North 421 484 39,000 1,200 Climbing Jacksonville Center
10:55AM 29.6667 -81.5542 North 421 484 40,300 960 Climbing Jacksonville Center
10:56AM 29.7792 -81.5478 North 415 478 41,000 300 Climbing Jacksonville Center
10:57AM 29.8919 -81.5389 North 409 471 41,000  Level Jacksonville Center
10:58AM 30.0067 -81.5325 North 404 465 41,000  Level Jacksonville Center
10:59AM 30.1214 -81.5261 North 404 465 41,000  Level Jacksonville Center
11:00AM 30.2361 -81.5150 North 404 465 41,000  Level Jacksonville Center
11:01AM 30.3508 -81.5133 348° North 404 465 41,000  Level Jacksonville Center
11:02AM 30.4639 -81.5406 347° North 404 465 41,000  Level Jacksonville Center
11:03AM 30.5644 -81.5681 345° North 404 465 41,000  Level Jacksonville Center
11:04AM 30.6714 -81.6006 348° North 404 465 41,000  Level Jacksonville Center
11:05AM 30.7781 -81.6281 351° North 399 459 41,000  Level Jacksonville Center
11:06AM 30.8869 -81.6483 351° North 394 453 41,000  Level Jacksonville Center
11:07AM 30.9997 -81.6686 351° North 394 453 41,000  Level Jacksonville Center
11:08AM 31.1086 -81.6892 352° North 394 453 41,000  Level Jacksonville Center
11:09AM 31.2172 -81.7072 352° North 394 453 41,000  Level Jacksonville Center
11:10AM 31.3261 -81.7253 350° North 389 448 41,000  Level Jacksonville Center
11:11AM 31.4453 -81.7506 352° North 389 448 41,000  Level Jacksonville Center
11:12AM 31.5539 -81.7686 351° North 394 453 41,000  Level Jacksonville Center
11:13AM 31.6544 -81.7869 351° North 394 453 41,000  Level Jacksonville Center
11:15AM 31.9628 -81.8431 352° North 389 448 41,000  Level Atlanta Center
11:16AM 32.0739 -81.8622 351° North 420 483 41,000  Level Atlanta Center
11:17AM 32.1806 -81.8817 351° North 394 453 41,000  Level Atlanta Center
11:18AM 32.2769 -81.8992 351° North 404 465 41,000  Level Atlanta Center
11:19AM 32.3858 -81.9186 351° North 399 459 41,000  Level Atlanta Center
11:20AM 32.4947 -81.9381 350° North 394 453 41,000  Level Atlanta Center
11:21AM 32.6014 -81.9603 352° North 388 447 41,000  Level Atlanta Center
11:22AM 32.7186 -81.9797 351° North 388 447 41,000  Level Atlanta Center
11:23AM 32.8256 -81.9994 358° North 388 447 41,000  Level Atlanta Center
11:24AM 32.9342 -82.0044 North 388 447 41,000  Level Atlanta Center
11:25AM 33.0447 -81.9994 North 388 447 41,000  Level Atlanta Center
11:26AM 33.1511 -81.9969 North 382 440 41,000  Level Atlanta Center
11:27AM 33.2594 -81.9917 North 382 440 41,000  Level Atlanta Center
11:28AM 33.3681 -81.9867 North 382 440 41,000  Level Atlanta Center
11:29AM 33.4786 -81.9842 North 382 440 41,000  Level Atlanta Center
11:30AM 33.5869 -81.9792 North 387 445 41,000  Level Atlanta Center
11:31AM 33.6997 -81.9739 North 387 445 41,000  Level Atlanta Center
11:32AM 33.8081 -81.9711 North 387 445 41,000  Level Atlanta Center
11:33AM 33.9083 -81.9689 North 382 440 41,000  Level Atlanta Center
11:34AM 34.0167 -81.9636 North 387 445 41,000  Level Atlanta Center
11:35AM 34.1253 -81.9586 North 387 445 41,000  Level Atlanta Center
11:36AM 34.2317 -81.9558 North 382 440 41,000  Level Atlanta Center
11:37AM 34.3419 -81.9481 18° North 382 440 41,000  Level Atlanta Center
11:38AM 34.4458 -81.9078 20° North 387 445 41,000  Level Atlanta Center
11:39AM 34.5492 -81.8622 17° North 387 445 41,000  Level Atlanta Center
11:40AM 34.6633 -81.8189 21° North 392 451 41,000  Level Atlanta Center
11:41AM 34.7667 -81.7708 20° North 392 451 41,000  Level Atlanta Center
11:42AM 34.8703 -81.7247 21° North 386 444 41,000  Level Atlanta Center
11:43AM 34.9736 -81.6764 19° North 386 444 41,000  Level Atlanta Center
11:44AM 35.0750 -81.6328 20° North 386 444 41,000  Level Atlanta Center
11:45AM 35.1783 -81.5867 19° North 386 444 41,000  Level Atlanta Center
11:46AM 35.2819 -81.5428 20° North 386 444 41,000  Level Atlanta Center
11:47AM 35.3728 -81.5019 19° North 386 444 41,000  Level Atlanta Center
11:48AM 35.4742 -81.4581 21° North 380 437 41,000  Level Atlanta Center
11:49AM 35.5753 -81.4114 21° North 388 447 41,000  Level Atlanta Center
11:50AM 35.6828 -81.3594 18° North 388 447 41,000  Level Atlanta Center
11:51AM 35.7903 -81.3175 22° Northeast 388 447 41,000  Level Atlanta Center
11:52AM 35.8853 -81.2706 21° North 373 429 41,000  Level Atlanta Center
11:53AM 35.9822 -81.2236 20° North 368 423 41,000  Level Atlanta Center
11:54AM 36.0792 -81.1792 20° North 368 423 41,000  Level Atlanta Center
11:55AM 36.1783 -81.1347 21° North 368 423 41,000  Level Atlanta Center
11:56AM 36.2628 -81.0956 20° North 368 423 41,000  Level Atlanta Center
11:57AM 36.3597 -81.0506 20° North 368 423 41,000  Level Atlanta Center
11:58AM 36.4567 -81.0058 21° North 368 423 41,000  Level Atlanta Center
11:59AM 36.5514 -80.9608 20° North 368 423 41,000  Level Atlanta Center
12:00PM 36.6442 -80.9183 21° North 363 418 41,000  Level Atlanta Center
12:02PM 36.8364 -80.8264 18° North 353 406 41,000  Level Washington Center
12:03PM 36.9256 -80.7908 20° North 346 398 41,000  Level Washington Center
12:04PM 37.0194 -80.7478 19° North 346 398 41,000  Level Washington Center
12:05PM 37.1108 -80.7072 14° North 346 398 41,000  Level Washington Center
12:06PM 37.1953 -80.6814 15° North 352 405 41,000  Level Washington Center
12:07PM 37.2906 -80.6486 14° North 347 399 41,000  Level Washington Center
12:08PM 37.3836 -80.6183 15° North 342 394 41,000  Level Washington Center
12:09PM 37.4789 -80.5853 14° North 342 394 41,000  Level Washington Center
12:10PM 37.5825 -80.5528 16° North 348 400 41,000  Level Washington Center
12:11PM 37.6758 -80.5194 14° North 348 400 41,000  Level Washington Center
12:12PM 37.7708 -80.4889 15° North 342 394 41,000  Level Washington Center
12:13PM 37.8639 -80.4581 16° North 342 394 41,000  Level Washington Center
12:14PM 37.9569 -80.4247 15° North 342 394 41,000  Level Washington Center
12:15PM 38.0417 -80.3958 16° North 342 394 41,000  Level Washington Center
12:16PM 38.1347 -80.3622 13° North 342 394 41,000  Level Washington Center
12:17PM 38.2297 -80.3339 16° North 342 394 41,000  Level Washington Center
12:18PM 38.3208 -80.3000 15° North 342 394 41,000  Level Washington Center
12:19PM 38.4264 -80.2644 18° North 342 394 41,000  Level Washington Center
12:20PM 38.5175 -80.2275 33° Northeast 342 394 41,000  Level Washington Center
12:21PM 38.6036 -80.1558 37° Northeast 347 399 41,000  Level Washington Center
12:23PM 38.7631 -80.0028 24° Northeast 379 436 41,000  Level Cleveland Center
12:24PM 38.8544 -79.9514 21° North 364 419 41,000  Level Cleveland Center
12:25PM 38.9458 -79.9053 20° North 352 405 41,000  Level Cleveland Center
12:26PM 39.0414 -79.8617 22° Northeast 352 405 41,000  Level Cleveland Center
12:27PM 39.1350 -79.8125 21° North 352 405 41,000  Level Cleveland Center
12:28PM 39.2283 -79.7658 22° Northeast 352 405 41,000  Level Cleveland Center
12:29PM 39.3239 -79.7164 22° Northeast 359 413 41,000  Level Cleveland Center
12:30PM 39.4194 -79.6669 21° North 359 413 41,000  Level Cleveland Center
12:31PM 39.5150 -79.6197 22° Northeast 359 413 41,000  Level Cleveland Center
12:32PM 39.6103 -79.5700 21° North 364 419 41,000  Level Cleveland Center
12:33PM 39.7058 -79.5225 22° Northeast 369 425 41,000 -300 Level Cleveland Center
12:34PM 39.8011 -79.4725 21° North 369 425 40,400 -900 Descending Cleveland Center
12:35PM 39.8967 -79.4250 22° Northeast 369 425 39,200 -720 Descending Cleveland Center
12:36PM 39.9878 -79.3772 22° Northeast 363 418 39,000 -120 Descending Cleveland Center
12:37PM 40.0792 -79.3294 22° Northeast 353 406 39,000  Level Cleveland Center
12:38PM 40.1661 -79.2844 21° North 343 395 39,000 -300 Level Cleveland Center
12:39PM 40.2572 -79.2392 23° Northeast 343 395 38,400 -1,140 Descending Cleveland Center
12:40PM 40.3506 -79.1883 21° North 348 400 36,800 -1,560 Descending Cleveland Center
12:41PM 40.4436 -79.1425 23° Northeast 348 400 35,300 -1,560 Descending Cleveland Center
12:42PM 40.5369 -79.0914 22° Northeast 353 406 33,700 -1,200 Descending Cleveland Center
12:43PM 40.6383 -79.0372 22° Northeast 363 418 33,000 -420 Descending Cleveland Center
12:44PM 40.7419 -78.9828 21° North 384 442 32,900 -960 Descending Cleveland Center
12:45PM 40.8433 -78.9308 22° Northeast 390 449 31,100 -1,440 Descending Cleveland Center
12:46PM 40.9467 -78.8758 21° North 390 449 30,100 -1,020 Descending Cleveland Center
12:47PM 41.0564 -78.8208 23° Northeast 395 455 29,100 -1,020 Descending Cleveland Center
12:48PM 41.1597 -78.7628 21° North 395 455 28,100 -600 Descending Cleveland Center
12:49PM 41.2672 -78.7075 23° Northeast 400 460 28,000 -60 Descending Cleveland Center
12:50PM 41.3725 -78.6489 23° Northeast 406 467 28,000  Level Cleveland Center
12:51PM 41.4861 -78.5847 22° Northeast 406 467 28,000  Level Cleveland Center
12:52PM 41.5894 -78.5286 22° Northeast 406 467 28,000  Level Cleveland Center
12:53PM 41.6883 -78.4756 23° Northeast 400 460 28,000  Level Cleveland Center
12:54PM 41.7875 -78.4194 22° Northeast 389 448 28,000 -540 Level Cleveland Center
12:55PM 41.8906 -78.3628 22° Northeast 389 448 27,000 -1,560 Descending Cleveland Center
12:56PM 41.9936 -78.3061 23° Northeast 394 453 24,900 -2,100 Descending Cleveland Center
12:57PM 42.0928 -78.2494 21° North 388 447 22,800 -2,100 Descending Cleveland Center
12:58PM 42.1833 -78.2014 22° Northeast 388 447 20,800 -1,980 Descending Cleveland Center
12:59PM 42.2844 -78.1469 23° Northeast 375 432 18,900 -1,800 Descending Cleveland Center
01:00PM 42.3731 -78.0958 22° Northeast 352 405 17,200 -1,860 Descending Cleveland Center
01:01PM 42.4617 -78.0472 22° Northeast 347 399 15,200 -1,980 Descending Cleveland Center
01:02PM 42.5294 -78.0108 23° Northeast 339 390 13,700 -1,860 Descending Cleveland Center
01:03PM 42.6078 -77.9653 23° Northeast 330 380 12,100 -1,620 Descending Cleveland Center
01:04PM 42.6797 -77.9228 21° North 297 342 10,600 -1,500 Descending Cleveland Center
01:05PM 42.7517 -77.8856 North 266 306 9,100 -1,860 Descending Cleveland Center
01:06PM 42.8222 -77.8714 14° North 255 293 6,900 -2,220 Descending Cleveland Center
01:07PM 42.8989 -77.8453 20° North 244 281 4,500 -2,040 Descending Cleveland Center
01:08PM 42.9544 -77.8175 32° Northeast 253 291 2,800 -1,020 Descending Cleveland Center
01:09PM 43.0136 -77.7664 32° Northeast 219 252 2,500 -480 Descending Cleveland Center
01:10PM 43.0525 -77.7333 28° Northeast 157 181 1,800 -720 Descending Cleveland Center
01:11PM 43.0853 -77.7092 28° Northeast 135 155 1,100 -720 Descending Cleveland Center